createdAt,value
2023-05-12T00:00:43.065Z,4.49
2023-05-12T00:03:10.055Z,4.53
2023-05-12T00:05:37.157Z,4.63
2023-05-12T00:08:04.808Z,4.68
2023-05-12T00:10:31.755Z,4.67
2023-05-12T00:12:58.697Z,4.65
2023-05-12T00:15:25.604Z,4.63
2023-05-12T00:17:52.693Z,4.64
2023-05-12T00:20:20.066Z,4.62
2023-05-12T00:22:47.270Z,4.55
2023-05-12T00:25:14.344Z,4.45
2023-05-12T00:27:41.396Z,4.41
2023-05-12T00:30:09.369Z,4.39
2023-05-12T00:32:36.547Z,4.40
2023-05-12T00:35:03.661Z,4.41
2023-05-12T00:37:30.816Z,4.42
2023-05-12T00:39:57.749Z,4.41
2023-05-12T00:42:24.696Z,4.40
2023-05-12T00:44:51.563Z,4.34
2023-05-12T00:47:20.325Z,4.28
2023-05-12T00:49:47.479Z,4.23
2023-05-12T00:52:14.424Z,4.21
2023-05-12T00:54:41.470Z,4.21
2023-05-12T00:57:08.626Z,4.24
2023-05-12T00:59:36.191Z,4.26
2023-05-12T01:02:03.509Z,4.25
2023-05-12T01:04:30.580Z,4.27
2023-05-12T01:07:10.434Z,4.27
2023-05-12T01:09:38.699Z,4.21
2023-05-12T01:12:06.088Z,4.16
2023-05-12T01:14:34.950Z,4.14
2023-05-12T01:17:03.798Z,4.13
2023-05-12T01:19:51.472Z,4.09
2023-05-12T01:22:18.930Z,4.09
2023-05-12T01:24:57.541Z,4.06
2023-05-12T01:27:26.430Z,4.03
2023-05-12T01:29:57.016Z,3.96
2023-05-12T01:32:24.281Z,3.90
2023-05-12T01:34:52.277Z,3.83
2023-05-12T01:37:20.760Z,3.74
2023-05-12T01:39:48.111Z,3.67
2023-05-12T01:42:19.050Z,3.63
2023-05-12T01:44:46.332Z,3.62
2023-05-12T01:47:16.014Z,3.63
2023-05-12T01:49:49.034Z,3.58
2023-05-12T01:52:16.553Z,3.53
2023-05-12T01:54:44.107Z,3.50
2023-05-12T01:57:12.079Z,3.49
2023-05-12T01:59:40.049Z,3.45
2023-05-12T02:02:07.408Z,3.46
2023-05-12T02:04:34.774Z,3.54
2023-05-12T02:07:02.213Z,3.64
2023-05-12T02:09:29.565Z,3.71
2023-05-12T02:11:59.954Z,3.78
2023-05-12T02:14:27.046Z,3.84
2023-05-12T02:16:55.621Z,3.87
2023-05-12T02:19:23.590Z,3.88
2023-05-12T02:21:50.665Z,3.88
2023-05-12T02:24:17.683Z,3.88
2023-05-12T02:26:45.111Z,3.89
2023-05-12T02:29:13.446Z,3.91
2023-05-12T02:31:40.611Z,3.97
2023-05-12T02:34:16.213Z,3.98
2023-05-12T02:36:43.368Z,4.00
2023-05-12T02:39:10.817Z,4.04
2023-05-12T02:41:37.980Z,4.11
2023-05-12T02:44:05.320Z,4.19
2023-05-12T02:46:32.482Z,4.32
2023-05-12T02:48:59.625Z,4.39
2023-05-12T02:51:26.566Z,4.46
2023-05-12T02:53:53.627Z,4.59
2023-05-12T02:56:21.116Z,4.71
2023-05-12T02:58:48.631Z,4.83
2023-05-12T03:01:15.725Z,4.97
2023-05-12T03:03:42.912Z,5.13
2023-05-12T03:06:10.290Z,5.27
2023-05-12T03:08:37.248Z,5.36
2023-05-12T03:11:04.274Z,5.44
2023-05-12T03:13:31.225Z,5.57
2023-05-12T03:16:01.780Z,5.70
2023-05-12T03:18:29.613Z,5.81
2023-05-12T03:20:56.984Z,5.89
2023-05-12T03:23:24.732Z,5.98
2023-05-12T03:25:51.879Z,6.04
2023-05-12T03:28:18.827Z,6.10
2023-05-12T03:30:45.767Z,6.19
2023-05-12T03:33:12.713Z,6.28
2023-05-12T03:35:39.637Z,6.36
2023-05-12T03:38:06.905Z,6.46
2023-05-12T03:40:33.959Z,6.55
2023-05-12T03:43:01.122Z,6.66
2023-05-12T03:45:28.252Z,6.80
2023-05-12T03:47:55.433Z,7.01
2023-05-12T03:50:22.633Z,7.24
2023-05-12T03:52:49.697Z,7.49
2023-05-12T03:55:16.647Z,7.76
2023-05-12T03:57:44.200Z,8.00
2023-05-12T04:00:12.183Z,8.24
2023-05-12T04:02:46.734Z,8.49
2023-05-12T04:05:14.271Z,8.68
2023-05-12T04:07:42.029Z,8.90
2023-05-12T04:10:09.382Z,9.12
2023-05-12T04:12:36.527Z,9.35
2023-05-12T04:15:05.124Z,9.55
2023-05-12T04:17:32.162Z,9.75
2023-05-12T04:19:59.093Z,9.96
2023-05-12T04:22:26.243Z,10.22
2023-05-12T04:24:53.701Z,10.48
2023-05-12T04:27:20.751Z,10.74
2023-05-12T04:29:48.410Z,10.96
2023-05-12T04:32:15.914Z,11.09
2023-05-12T04:34:44.150Z,11.24
2023-05-12T04:39:10.607Z,11.65
2023-05-12T04:41:37.733Z,11.81
2023-05-12T04:44:05.303Z,11.90
2023-05-12T04:46:33.283Z,11.94
2023-05-12T04:49:00.823Z,11.98
2023-05-12T04:51:27.767Z,12.11
2023-05-12T04:53:54.717Z,12.26
2023-05-12T04:56:22.478Z,12.41
2023-05-12T04:58:49.738Z,12.59
2023-05-12T05:01:17.005Z,12.73
2023-05-12T05:03:44.333Z,12.86
2023-05-12T05:06:11.997Z,13.03
2023-05-12T05:08:39.156Z,13.18
2023-05-12T05:11:06.396Z,13.37
2023-05-12T05:13:33.443Z,13.53
2023-05-12T05:16:00.557Z,13.66
2023-05-12T05:18:29.257Z,13.82
2023-05-12T05:20:58.935Z,14.07
2023-05-12T05:23:26.759Z,14.30
2023-05-12T05:25:54.328Z,14.54
2023-05-12T05:28:21.259Z,14.78
2023-05-12T05:30:48.297Z,15.00
2023-05-12T05:33:15.353Z,15.23
2023-05-12T05:35:42.691Z,15.33
2023-05-12T05:38:10.690Z,15.40
2023-05-12T05:40:49.309Z,15.52
2023-05-12T05:43:19.814Z,15.72
2023-05-12T05:45:49.526Z,15.83
2023-05-12T05:48:16.474Z,15.77
2023-05-12T05:50:43.927Z,15.82
2023-05-12T05:53:10.992Z,15.94
2023-05-12T05:55:38.021Z,16.00
2023-05-12T05:58:05.713Z,16.14
2023-05-12T06:00:32.936Z,16.27
2023-05-12T06:03:00.099Z,16.35
2023-05-12T06:05:27.335Z,16.33
2023-05-12T06:07:54.275Z,16.28
2023-05-12T06:10:21.405Z,16.24
2023-05-12T06:12:50.587Z,16.25
2023-05-12T06:15:18.317Z,16.27
2023-05-12T06:17:45.783Z,16.37
2023-05-12T06:20:13.739Z,16.38
2023-05-12T06:22:42.544Z,16.34
2023-05-12T06:25:10.326Z,16.33
2023-05-12T06:27:38.341Z,16.36
2023-05-12T06:30:07.344Z,16.50
2023-05-12T06:32:34.333Z,16.70
2023-05-12T06:35:01.489Z,16.74
2023-05-12T06:37:28.468Z,16.76
2023-05-12T06:39:55.532Z,16.85
2023-05-12T06:42:23.890Z,16.90
2023-05-12T06:44:52.068Z,16.91
2023-05-12T06:47:20.857Z,17.02
2023-05-12T06:49:50.255Z,17.07
2023-05-12T06:52:17.335Z,17.08
2023-05-12T06:54:44.771Z,17.14
2023-05-12T06:57:12.319Z,17.29
2023-05-12T06:59:39.363Z,17.47
2023-05-12T07:02:06.609Z,17.66
2023-05-12T07:04:33.568Z,17.77
2023-05-12T07:07:00.508Z,17.97
2023-05-12T07:09:27.735Z,18.18
2023-05-12T07:11:55.053Z,18.33
2023-05-12T07:14:22.052Z,18.37
2023-05-12T07:16:48.991Z,18.40
2023-05-12T07:19:15.948Z,18.34
2023-05-12T07:21:43.403Z,18.35
2023-05-12T07:24:10.442Z,18.51
2023-05-12T07:26:37.727Z,18.66
2023-05-12T07:29:05.568Z,18.93
2023-05-12T07:31:33.904Z,19.20
2023-05-12T07:34:01.196Z,19.22
2023-05-12T07:36:28.544Z,19.27
2023-05-12T07:38:55.496Z,19.37
2023-05-12T07:41:22.560Z,19.64
2023-05-12T07:43:49.478Z,19.86
2023-05-12T07:46:16.432Z,20.03
2023-05-12T07:48:43.318Z,20.41
2023-05-12T07:51:10.178Z,20.84
2023-05-12T07:53:37.154Z,21.27
2023-05-12T07:56:04.201Z,21.52
2023-05-12T07:58:31.252Z,21.46
2023-05-12T08:01:00.398Z,21.36
2023-05-12T08:03:27.647Z,21.14
2023-05-12T08:05:54.661Z,20.85
2023-05-12T08:08:21.896Z,20.35
2023-05-12T08:10:48.954Z,20.02
2023-05-12T08:13:15.954Z,19.76
2023-05-12T08:15:43.032Z,19.92
2023-05-12T08:18:10.218Z,20.32
2023-05-12T08:20:37.329Z,20.67
2023-05-12T08:23:04.291Z,21.09
2023-05-12T08:25:31.525Z,21.26
2023-05-12T08:27:59.806Z,21.09
2023-05-12T08:30:27.240Z,21.00
2023-05-12T08:32:57.706Z,21.04
2023-05-12T08:35:25.204Z,21.14
2023-05-12T08:37:53.339Z,21.06
2023-05-12T08:40:24.358Z,20.71
2023-05-12T08:43:14.073Z,20.21
2023-05-12T08:45:41.077Z,19.98
2023-05-12T08:48:10.354Z,19.86
2023-05-12T08:50:38.381Z,19.67
2023-05-12T08:53:05.709Z,19.31
2023-05-12T08:55:34.221Z,18.96
2023-05-12T08:58:03.074Z,18.69
2023-05-12T09:00:31.394Z,18.80
2023-05-12T09:02:59.684Z,18.99
2023-05-12T09:05:27.488Z,19.11
2023-05-12T09:07:55.557Z,19.33
2023-05-12T09:10:34.271Z,19.74
2023-05-12T09:13:46.228Z,20.17
2023-05-12T09:16:13.483Z,20.80
2023-05-12T09:18:54.955Z,21.02
2023-05-12T09:21:22.683Z,21.17
2023-05-12T09:24:06.306Z,21.27
2023-05-12T09:26:44.643Z,21.33
2023-05-12T09:29:15.754Z,21.35
2023-05-12T09:31:51.973Z,21.38
2023-05-12T09:34:19.387Z,21.45
2023-05-12T09:36:55.850Z,21.25
2023-05-12T09:39:22.901Z,20.85
2023-05-12T09:41:49.950Z,20.34
2023-05-12T09:44:17.196Z,20.12
2023-05-12T09:46:44.981Z,19.98
2023-05-12T09:49:12.819Z,19.99
2023-05-12T09:51:41.070Z,20.25
2023-05-12T09:54:08.154Z,20.33
2023-05-12T09:56:37.701Z,20.56
2023-05-12T09:59:05.626Z,20.63
2023-05-12T10:01:32.554Z,20.41
2023-05-12T10:03:59.451Z,20.53
2023-05-12T10:06:30.857Z,20.64
2023-05-12T10:09:20.551Z,20.65
2023-05-12T10:11:47.784Z,20.65
2023-05-12T10:14:14.830Z,20.76
2023-05-12T10:16:41.921Z,20.99
2023-05-12T10:19:09.274Z,20.88
2023-05-12T10:21:36.891Z,20.59
2023-05-12T10:24:04.550Z,20.28
2023-05-12T10:26:32.724Z,19.97
2023-05-12T10:28:59.679Z,19.86
2023-05-12T10:31:28.165Z,19.83
2023-05-12T10:33:59.094Z,19.74
2023-05-12T10:36:26.336Z,19.76
2023-05-12T10:38:53.603Z,19.86
2023-05-12T10:41:31.229Z,20.10
2023-05-12T10:43:58.494Z,20.26
2023-05-12T10:46:26.768Z,20.54
2023-05-12T10:48:58.791Z,20.92
2023-05-12T10:51:31.102Z,21.05
2023-05-12T10:54:04.141Z,21.05
2023-05-12T10:56:42.252Z,21.16
2023-05-12T10:59:24.467Z,21.16
2023-05-12T11:02:03.264Z,21.28
2023-05-12T11:04:49.434Z,21.43
2023-05-12T11:07:21.835Z,21.19
2023-05-12T11:09:58.613Z,20.75
2023-05-12T11:12:28.738Z,20.07
2023-05-12T11:14:56.194Z,19.57
2023-05-12T11:17:23.303Z,19.21
2023-05-12T11:19:50.708Z,19.06
2023-05-12T11:22:20.063Z,18.98
2023-05-12T11:24:48.479Z,18.84
2023-05-12T11:27:16.857Z,18.82
2023-05-12T11:29:45.163Z,19.10
2023-05-12T11:32:12.687Z,19.53
2023-05-12T11:34:39.826Z,20.09
2023-05-12T11:37:06.873Z,20.58
2023-05-12T11:39:34.137Z,20.85
2023-05-12T11:42:12.987Z,21.01
2023-05-12T11:44:48.095Z,21.40
2023-05-12T11:47:16.870Z,21.69
2023-05-12T11:49:49.455Z,21.99
2023-05-12T11:52:17.236Z,21.98
2023-05-12T11:55:00.990Z,21.63
2023-05-12T11:57:33.029Z,21.22
2023-05-12T12:00:10.004Z,21.02
2023-05-12T12:02:38.917Z,20.83
2023-05-12T12:05:16.724Z,20.62
2023-05-12T12:07:43.732Z,20.54
2023-05-12T12:10:20.198Z,20.65
2023-05-12T12:12:47.351Z,21.06
2023-05-12T12:15:14.293Z,21.41
2023-05-12T12:17:41.299Z,21.57
2023-05-12T12:20:10.711Z,21.52
2023-05-12T12:22:37.807Z,21.49
2023-05-12T12:25:06.275Z,21.52
2023-05-12T12:27:33.220Z,21.47
2023-05-12T12:30:00.192Z,21.20
2023-05-12T12:32:27.368Z,20.87
2023-05-12T12:34:54.485Z,20.67
2023-05-12T12:37:21.504Z,20.40
2023-05-12T12:39:48.858Z,20.31
2023-05-12T12:42:15.820Z,20.28
2023-05-12T12:44:43.984Z,20.37
2023-05-12T12:47:11.047Z,20.58
2023-05-12T12:49:37.962Z,20.90
2023-05-12T12:52:05.759Z,21.10
2023-05-12T12:54:33.000Z,21.27
2023-05-12T12:56:59.926Z,21.44
2023-05-12T12:59:27.267Z,21.55
2023-05-12T13:01:54.239Z,21.82
2023-05-12T13:04:23.194Z,22.06
2023-05-12T13:06:50.367Z,22.20
2023-05-12T13:09:20.000Z,22.37
2023-05-12T13:11:47.964Z,22.68
2023-05-12T13:14:14.889Z,22.85
2023-05-12T13:16:42.465Z,22.85
2023-05-12T13:19:09.793Z,22.43
2023-05-12T13:21:37.975Z,21.89
2023-05-12T13:24:05.032Z,21.83
2023-05-12T13:26:31.956Z,22.42
2023-05-12T13:28:58.908Z,23.11
2023-05-12T13:31:26.231Z,23.36
2023-05-12T13:33:53.302Z,23.13
2023-05-12T13:36:20.321Z,22.78
2023-05-12T13:38:47.305Z,22.43
2023-05-12T13:41:14.336Z,22.01
2023-05-12T13:43:41.258Z,21.40
2023-05-12T13:46:09.654Z,20.80
2023-05-12T13:48:36.709Z,20.37
2023-05-12T13:51:03.752Z,20.16
2023-05-12T13:53:31.009Z,19.96
2023-05-12T13:55:57.953Z,19.75
2023-05-12T13:58:24.903Z,19.58
2023-05-12T14:00:51.793Z,19.44
2023-05-12T14:03:18.778Z,19.33
2023-05-12T14:05:46.032Z,19.19
2023-05-12T14:08:12.977Z,19.05
2023-05-12T14:10:39.933Z,19.05
2023-05-12T14:13:08.482Z,19.34
2023-05-12T14:15:47.945Z,19.86
2023-05-12T14:18:16.235Z,20.58
2023-05-12T14:20:43.412Z,21.17
2023-05-12T14:23:10.432Z,21.70
2023-05-12T14:25:37.498Z,22.10
2023-05-12T14:28:04.543Z,22.44
2023-05-12T14:30:31.713Z,22.64
2023-05-12T14:32:58.748Z,22.81
2023-05-12T14:35:27.813Z,22.73
2023-05-12T14:37:55.703Z,22.59
2023-05-12T14:40:23.435Z,22.39
2023-05-12T14:42:50.435Z,22.30
2023-05-12T14:45:18.197Z,22.34
2023-05-12T14:47:45.392Z,22.29
2023-05-12T14:50:13.718Z,22.36
2023-05-12T14:52:40.817Z,22.46
2023-05-12T14:55:12.269Z,22.39
2023-05-12T14:57:42.379Z,22.46
2023-05-12T15:00:13.855Z,22.56
2023-05-12T15:02:42.224Z,22.61
2023-05-12T15:05:10.444Z,22.68
2023-05-12T15:07:37.842Z,22.66
2023-05-12T15:10:05.929Z,22.56
2023-05-12T15:12:33.572Z,22.32
2023-05-12T15:15:05.429Z,22.21
2023-05-12T15:17:32.733Z,22.24
2023-05-12T15:19:59.627Z,22.34
2023-05-12T15:22:31.384Z,22.32
2023-05-12T15:24:59.144Z,22.35
2023-05-12T15:27:26.491Z,22.32
2023-05-12T15:29:54.065Z,22.24
2023-05-12T15:32:21.001Z,22.22
2023-05-12T15:34:48.052Z,22.10
2023-05-12T15:37:15.402Z,21.96
2023-05-12T15:39:42.760Z,21.88
2023-05-12T15:42:10.728Z,21.81
2023-05-12T15:44:39.417Z,21.73
2023-05-12T15:47:06.827Z,21.74
2023-05-12T15:49:33.813Z,21.85
2023-05-12T15:52:00.971Z,21.89
2023-05-12T15:54:28.417Z,21.92
2023-05-12T15:56:55.327Z,21.93
2023-05-12T15:59:22.307Z,21.95
2023-05-12T16:01:49.229Z,21.80
2023-05-12T16:04:16.594Z,21.63
2023-05-12T16:06:43.779Z,21.62
2023-05-12T16:09:11.312Z,21.59
2023-05-12T16:11:38.561Z,21.52
2023-05-12T16:14:05.717Z,21.49
2023-05-12T16:16:32.732Z,21.42
2023-05-12T16:18:59.773Z,21.32
2023-05-12T16:21:26.854Z,21.31
2023-05-12T16:23:53.796Z,21.26
2023-05-12T16:26:20.854Z,21.13
2023-05-12T16:28:47.890Z,20.91
2023-05-12T16:31:18.429Z,20.67
2023-05-12T16:33:45.977Z,20.51
2023-05-12T16:36:13.343Z,20.29
2023-05-12T16:38:40.680Z,19.95
2023-05-12T16:41:07.758Z,19.64
2023-05-12T16:43:34.906Z,19.51
2023-05-12T16:46:02.696Z,19.36
2023-05-12T16:48:34.466Z,19.08
2023-05-12T16:51:09.224Z,18.75
2023-05-12T16:53:36.171Z,18.40
2023-05-12T16:57:21.151Z,17.93
2023-05-12T16:59:51.163Z,17.58
2023-05-12T17:02:18.776Z,17.28
2023-05-12T17:04:46.770Z,16.94
2023-05-12T17:07:13.731Z,16.59
2023-05-12T17:09:40.782Z,16.26
2023-05-12T17:12:08.590Z,15.98
2023-05-12T17:14:35.714Z,15.71
2023-05-12T17:17:03.157Z,15.44
2023-05-12T17:19:30.080Z,15.21
2023-05-12T17:21:57.145Z,14.96
2023-05-12T17:24:24.187Z,14.71
2023-05-12T17:26:51.232Z,14.51
2023-05-12T17:29:18.278Z,14.32
2023-05-12T17:31:45.163Z,14.11
2023-05-12T17:34:12.121Z,13.90
2023-05-12T17:36:39.116Z,13.71
2023-05-12T17:39:06.265Z,13.52
2023-05-12T17:41:33.222Z,13.32
2023-05-12T17:44:00.130Z,13.12
2023-05-12T17:46:27.739Z,12.98
2023-05-12T17:48:54.739Z,12.88
2023-05-12T17:51:22.028Z,12.81
2023-05-12T17:53:48.965Z,12.75
2023-05-12T17:56:16.111Z,12.70
2023-05-12T17:58:43.050Z,12.69
2023-05-12T18:01:10.098Z,12.69
2023-05-12T18:03:38.224Z,12.65
2023-05-12T18:06:05.826Z,12.61
2023-05-12T18:08:32.986Z,12.61
2023-05-12T18:11:00.332Z,12.59
2023-05-12T18:13:27.515Z,12.49
2023-05-12T18:15:54.630Z,12.34
2023-05-12T18:18:21.905Z,12.17
2023-05-12T18:20:49.149Z,12.02
2023-05-12T18:23:16.177Z,11.88
2023-05-12T18:25:43.326Z,11.72
2023-05-12T18:28:10.222Z,11.58
2023-05-12T18:30:37.277Z,11.45
2023-05-12T18:33:04.985Z,11.36
2023-05-12T18:35:32.110Z,11.26
2023-05-12T18:37:59.507Z,11.16
2023-05-12T18:40:26.545Z,11.06
2023-05-12T18:42:53.570Z,10.94
2023-05-12T18:45:20.831Z,10.82
2023-05-12T18:47:48.047Z,10.73
2023-05-12T18:50:15.125Z,10.59
2023-05-12T18:52:42.984Z,10.46
2023-05-12T18:55:11.064Z,10.33
2023-05-12T18:57:38.551Z,10.23
2023-05-12T19:00:06.704Z,10.18
2023-05-12T19:02:34.763Z,10.19
2023-05-12T19:05:02.377Z,10.21
2023-05-12T19:07:29.373Z,10.19
2023-05-12T19:09:56.514Z,10.12
2023-05-12T19:12:23.489Z,10.04
2023-05-12T19:14:50.400Z,9.94
2023-05-12T19:17:17.930Z,9.84
2023-05-12T19:19:45.110Z,9.74
2023-05-12T19:22:12.362Z,9.65
2023-05-12T19:24:39.220Z,9.55
2023-05-12T19:27:06.464Z,9.44
2023-05-12T19:29:33.406Z,9.35
2023-05-12T19:32:00.532Z,9.25
2023-05-12T19:34:29.644Z,9.16
2023-05-12T19:36:58.441Z,9.06
2023-05-12T19:39:25.377Z,8.98
2023-05-12T19:41:52.282Z,8.94
2023-05-12T19:44:19.264Z,8.89
2023-05-12T19:46:47.234Z,8.86
2023-05-12T19:49:14.997Z,8.84
2023-05-12T19:51:41.942Z,8.80
2023-05-12T19:54:10.133Z,8.74
2023-05-12T19:56:37.568Z,8.67
2023-05-12T19:59:04.512Z,8.60
2023-05-12T20:01:31.682Z,8.50
2023-05-12T20:03:58.708Z,8.41
2023-05-12T20:06:25.767Z,8.32
2023-05-12T20:08:52.918Z,8.23
2023-05-12T20:11:20.063Z,8.16
2023-05-12T20:13:46.999Z,8.12
2023-05-12T20:16:14.048Z,8.08
2023-05-12T20:18:41.318Z,8.02
2023-05-12T20:21:08.349Z,7.98
2023-05-12T20:23:35.299Z,7.93
2023-05-12T20:26:02.234Z,7.88
2023-05-12T20:28:29.378Z,7.86
2023-05-12T20:30:56.602Z,7.84
2023-05-12T20:33:23.783Z,7.82
2023-05-12T20:35:51.047Z,7.82
2023-05-12T20:38:17.984Z,7.79
2023-05-12T20:40:45.433Z,7.76
2023-05-12T20:43:14.605Z,7.75
2023-05-12T20:45:41.828Z,7.77
2023-05-12T20:48:09.425Z,7.74
2023-05-12T20:50:36.591Z,7.73
2023-05-12T20:53:04.705Z,7.73
2023-05-12T20:55:34.995Z,7.74
2023-05-12T20:58:01.889Z,7.75
2023-05-12T21:00:28.893Z,7.74
2023-05-12T21:02:56.304Z,7.71
2023-05-12T21:05:23.453Z,7.70
2023-05-12T21:07:50.723Z,7.68
2023-05-12T21:10:19.364Z,7.67
2023-05-12T21:12:46.365Z,7.65
2023-05-12T21:15:13.396Z,7.61
2023-05-12T21:17:41.112Z,7.59
2023-05-12T21:20:10.128Z,7.56
2023-05-12T21:22:37.622Z,7.54
2023-05-12T21:25:05.207Z,7.51
2023-05-12T21:27:32.164Z,7.47
2023-05-12T21:29:59.164Z,7.45
2023-05-12T21:32:26.681Z,7.45
2023-05-12T21:34:53.785Z,7.43
2023-05-12T21:37:20.682Z,7.44
2023-05-12T21:39:47.673Z,7.46
2023-05-12T21:42:14.922Z,7.54
2023-05-12T21:44:41.955Z,7.59
2023-05-12T21:47:09.002Z,7.59
2023-05-12T21:49:36.050Z,7.59
2023-05-12T21:52:03.410Z,7.61
2023-05-12T21:54:33.490Z,7.60
2023-05-12T21:57:00.881Z,7.62
2023-05-12T21:59:29.278Z,7.65
2023-05-12T22:01:56.337Z,7.67
2023-05-12T22:04:23.555Z,7.68
2023-05-12T22:06:51.103Z,7.67
2023-05-12T22:09:18.571Z,7.68
2023-05-12T22:11:45.404Z,7.69
2023-05-12T22:14:12.357Z,7.70
2023-05-12T22:16:42.263Z,7.69
2023-05-12T22:19:10.381Z,7.68
2023-05-12T22:21:37.492Z,7.69
2023-05-12T22:24:04.640Z,7.67
2023-05-12T22:26:31.590Z,7.67
2023-05-12T22:28:58.444Z,7.69
2023-05-12T22:31:25.531Z,7.72
2023-05-12T22:33:52.641Z,7.73
2023-05-12T22:36:19.544Z,7.75
2023-05-12T22:38:46.410Z,7.75
2023-05-12T22:41:13.354Z,7.73
2023-05-12T22:43:40.605Z,7.70
2023-05-12T22:46:09.749Z,7.70
2023-05-12T22:48:39.444Z,7.69
2023-05-12T22:51:06.966Z,7.66
2023-05-12T22:53:36.264Z,7.66
2023-05-12T22:56:03.657Z,7.67
2023-05-12T22:58:30.677Z,7.67
2023-05-12T23:00:57.671Z,7.67
2023-05-12T23:03:24.697Z,7.70
2023-05-12T23:05:51.599Z,7.72
2023-05-12T23:08:18.441Z,7.70
2023-05-12T23:10:45.591Z,7.65
2023-05-12T23:13:12.535Z,7.57
2023-05-12T23:15:39.483Z,7.49
2023-05-12T23:18:06.593Z,7.42
2023-05-12T23:20:34.092Z,7.37
2023-05-12T23:23:01.032Z,7.30
2023-05-12T23:25:29.220Z,7.24
2023-05-12T23:27:56.152Z,7.15
2023-05-12T23:30:23.448Z,7.08
2023-05-12T23:32:50.567Z,7.02
2023-05-12T23:35:17.805Z,7.02
2023-05-12T23:37:44.679Z,7.01
2023-05-12T23:40:12.380Z,7.00
2023-05-12T23:42:39.351Z,6.99
2023-05-12T23:45:07.617Z,6.96
2023-05-12T23:47:34.601Z,6.93
2023-05-12T23:50:02.025Z,6.91
2023-05-12T23:52:29.079Z,6.88
2023-05-12T23:54:56.225Z,6.86
2023-05-12T23:57:23.270Z,6.85
2023-05-12T23:59:50.212Z,6.82
